Strona główna
METAR-TAF:

METAR-TAF

Lotnisko :

Port lotniczy Arad

Arad, Rumunia

Szerokość geograficzna: 46-12N, Długość geograficzna: 021-24E, wysokość: 117 m

Aktualna obserwacja pogody

Raport powstał 28 minut temu, godzina 06:00 UTC
Wiatr 3 kt od południowo-południowy wschód
Temperatura -2°C
Wilgotność 100%
Ciśnienie 1030 hPa
Widzialność: 2500 m
zamglenie

METAR: LRAR 170600Z 16003KT 2500 BR NSC M02/M02 Q1030

czas: 08:28 (06:28 UTC)

Prognoza

Raport powstał 1 godzina i 28 minut temu, godzina 05:00 UTC
Prognoza ważna od 17 godzina 06 UTC do 17 godzina 15 UTC
Wiatr 4 kt z kierunków zmiennych
Widzialność: 3000 m
zamglenie
Stopniowe zmiany
od 17 godzina 06 UTC do 17 godzina 08 UTC
Widzialność 10 km lub więcej
Brak chmur poniżej 1500 m i brak chmur cumulonimbus

TAF: LRAR 170500Z 1706/1715 VRB04KT 3000 BR NSC BECMG 1706/1708 CAVOK

Obserwacja i prognoza pogody dla ponad 4000 lotnisk (raport METAR i TAF).

Dostępne stacje oznaczono żółtymi i czerwonymi punktami na mapie.

Najedź kursorem aby zobaczyć nazwę stacji.

Kliknij aby zobaczyć obserwacje i prognozy pogody.

Aby zmienić mapę: kliknij na zielony przycisk z czarnym krzyżykiem, aby powiększyć; na zielony przycisk z myślnikiem, aby pomniejszyć; na zielone strzałki, aby przejść do map sąsiednich.


METAR-TAF: